Time;durP1;ratioP1;P1;durP2;ratioP2;P2;SDS_P1;SDS_P2;PMS_P1;PMS_P2;Temp;Humidity;BMP_temperature;BMP_pressure;BME280_temperature;BME280_humidity;BME280_pressure;Samples;Min_cycle;Max_cycle;Signal;HPM_P1;HPM_P2
2022/01/10 00:01:46;;;;;;;33.73;10.53;;;;;;;;;;4920927;29;20508;-85
2022/01/10 00:04:12;;;;;;;32.53;9.25;;;;;;;;;;4903139;29;20786;-83
2022/01/10 00:06:38;;;;;;;34.85;10.30;;;;;;;;;;4887341;29;20916;-84
2022/01/10 00:09:05;;;;;;;34.47;10.02;;;;;;;;;;4888340;29;20445;-84
2022/01/10 00:11:31;;;;;;;29.48;9.60;;;;;;;;;;4899670;29;20433;-85
2022/01/10 00:13:57;;;;;;;34.53;10.30;;;;;;;;;;4914622;29;20445;-84
2022/01/10 00:16:24;;;;;;;31.80;10.10;;;;;;;;;;4905823;29;20779;-83
2022/01/10 00:18:50;;;;;;;26.42;9.20;;;;;;;;;;4904514;29;20480;-83
2022/01/10 00:21:16;;;;;;;31.13;9.43;;;;;;;;;;4883382;29;20486;-83
2022/01/10 00:23:42;;;;;;;29.63;8.87;;;;;;;;;;4934036;29;20452;-84
2022/01/10 00:26:09;;;;;;;29.52;9.70;;;;;;;;;;4902179;29;20982;-83
2022/01/10 00:28:35;;;;;;;34.30;9.68;;;;;;;;;;4903700;29;20504;-84
2022/01/10 00:31:01;;;;;;;33.58;9.57;;;;;;;;;;4904744;29;20441;-84
2022/01/10 00:33:27;;;;;;;31.80;9.48;;;;;;;;;;4940526;29;20437;-84
2022/01/10 00:35:53;;;;;;;32.67;9.55;;;;;;;;;;4935066;29;20496;-84
2022/01/10 00:38:19;;;;;;;33.65;9.60;;;;;;;;;;4934301;29;20425;-84
2022/01/10 00:40:48;;;;;;;35.27;10.33;;;;;;;;;;4934821;29;20878;-84
2022/01/10 00:56:29;;;;;;;29.33;9.43;;;;;;;;;;5171082;23;20452;-79
2022/01/10 00:58:55;;;;;;;29.85;10.05;;;;;;;;;;4900798;29;20450;-80
2022/01/10 01:01:21;;;;;;;29.88;9.55;;;;;;;;;;4874872;29;20918;-81
2022/01/10 01:03:47;;;;;;;30.08;9.30;;;;;;;;;;4916271;29;20431;-80
2022/01/10 01:06:14;;;;;;;29.67;9.48;;;;;;;;;;4913766;29;20443;-81
2022/01/10 01:08:42;;;;;;;26.90;9.70;;;;;;;;;;4914352;29;20432;-81
2022/01/10 01:13:39;;;;;;;29.57;9.87;;;;;;;;;;4915851;29;20510;-81
2022/01/10 01:24:07;;;;;;;30.83;10.07;;;;;;;;;;4915309;29;20490;-79
2022/01/10 01:26:34;;;;;;;29.23;10.90;;;;;;;;;;4914645;29;20489;-79
2022/01/10 01:29:00;;;;;;;35.47;10.90;;;;;;;;;;4904743;29;20439;-81
2022/01/10 01:31:26;;;;;;;33.53;10.95;;;;;;;;;;4915736;29;20439;-81
2022/01/10 01:33:53;;;;;;;35.28;10.98;;;;;;;;;;4911318;29;20514;-80
2022/01/10 01:36:24;;;;;;;33.95;11.30;;;;;;;;;;4899909;29;20574;-80
2022/01/10 01:38:51;;;;;;;39.55;14.10;;;;;;;;;;4898399;29;20486;-81
2022/01/10 01:43:44;;;;;;;35.60;11.40;;;;;;;;;;4915134;29;20559;-80
2022/01/10 01:46:11;;;;;;;35.40;11.10;;;;;;;;;;4914828;29;20442;-80
2022/01/10 01:48:37;;;;;;;35.80;11.82;;;;;;;;;;4929078;29;20435;-80
2022/01/10 01:51:03;;;;;;;30.70;10.85;;;;;;;;;;4913252;29;20431;-80
2022/01/10 01:53:30;;;;;;;30.75;10.75;;;;;;;;;;4915309;29;20455;-80
2022/01/10 01:55:57;;;;;;;41.30;13.80;;;;;;;;;;4893627;29;20464;-76
2022/01/10 01:58:23;;;;;;;42.13;11.98;;;;;;;;;;4881270;29;20433;-76
2022/01/10 02:00:49;;;;;;;31.48;10.80;;;;;;;;;;4895373;29;20429;-76
2022/01/10 02:03:15;;;;;;;31.73;10.90;;;;;;;;;;4895948;29;20441;-76
2022/01/10 02:05:41;;;;;;;32.40;11.27;;;;;;;;;;4880618;29;20512;-76
2022/01/10 02:08:09;;;;;;;35.72;14.02;;;;;;;;;;4880033;29;20450;-76
2022/01/10 02:10:35;;;;;;;35.38;12.80;;;;;;;;;;4895217;29;20451;-76
2022/01/10 02:13:01;;;;;;;38.95;12.10;;;;;;;;;;4894685;29;20792;-76
2022/01/10 02:15:42;;;;;;;33.95;13.07;;;;;;;;;;4896530;29;20765;-76
2022/01/10 02:18:08;;;;;;;35.55;13.05;;;;;;;;;;4899083;29;20437;-76
2022/01/10 02:20:35;;;;;;;38.35;15.07;;;;;;;;;;4884494;29;20464;-76
2022/01/10 02:23:01;;;;;;;39.83;13.77;;;;;;;;;;4882901;29;20516;-76
2022/01/10 02:25:28;;;;;;;43.83;17.30;;;;;;;;;;4868156;29;20948;-76
2022/01/10 02:27:54;;;;;;;35.57;12.97;;;;;;;;;;4884745;29;20435;-76
2022/01/10 02:30:20;;;;;;;39.38;18.02;;;;;;;;;;4891553;29;20794;-76
2022/01/10 02:32:47;;;;;;;44.20;15.80;;;;;;;;;;4899427;29;20439;-76
2022/01/10 02:35:24;;;;;;;36.70;15.13;;;;;;;;;;4897598;29;20466;-76
2022/01/10 02:37:52;;;;;;;38.85;14.50;;;;;;;;;;4899854;29;20463;-76
2022/01/10 02:40:20;;;;;;;43.08;15.30;;;;;;;;;;4874748;29;20858;-76
2022/01/10 02:42:46;;;;;;;62.55;20.90;;;;;;;;;;4898572;29;20432;-76
2022/01/10 02:45:13;;;;;;;42.80;16.20;;;;;;;;;;4882031;29;20439;-77
2022/01/10 02:47:40;;;;;;;47.05;17.75;;;;;;;;;;4888505;29;20480;-77
2022/01/10 02:50:06;;;;;;;49.95;18.35;;;;;;;;;;4897808;29;20444;-77
2022/01/10 02:52:34;;;;;;;339.05;48.30;;;;;;;;;;4899165;29;20464;-76
2022/01/10 02:55:01;;;;;;;58.05;20.50;;;;;;;;;;4909331;29;20456;-77
2022/01/10 02:57:30;;;;;;;55.45;21.05;;;;;;;;;;4895278;29;20948;-77
2022/01/10 02:59:57;;;;;;;55.78;21.40;;;;;;;;;;4889744;29;20443;-76
2022/01/10 03:02:28;;;;;;;69.65;23.73;;;;;;;;;;4902585;29;20428;-76
2022/01/10 03:04:54;;;;;;;66.17;25.10;;;;;;;;;;4883914;29;20433;-76
2022/01/10 03:07:23;;;;;;;58.28;23.70;;;;;;;;;;4898533;29;20437;-76
2022/01/10 03:09:50;;;;;;;61.88;24.67;;;;;;;;;;4896239;29;20781;-76
2022/01/10 03:12:16;;;;;;;70.00;25.55;;;;;;;;;;4893859;29;20433;-76
2022/01/10 03:14:43;;;;;;;68.57;27.65;;;;;;;;;;4891735;29;20460;-76
2022/01/10 03:17:10;;;;;;;63.80;27.50;;;;;;;;;;4883630;29;20656;-76
2022/01/10 03:19:40;;;;;;;66.65;28.38;;;;;;;;;;4896070;29;20433;-76
2022/01/10 03:22:07;;;;;;;64.13;27.60;;;;;;;;;;4880964;29;20425;-76
2022/01/10 03:24:33;;;;;;;63.67;28.60;;;;;;;;;;4881902;29;20995;-76
2022/01/10 03:26:59;;;;;;;69.88;30.50;;;;;;;;;;4886603;29;20429;-76
2022/01/10 03:29:25;;;;;;;167.65;44.45;;;;;;;;;;4881762;29;20793;-76
2022/01/10 03:31:52;;;;;;;72.27;31.47;;;;;;;;;;4897703;29;20447;-77
2022/01/10 03:34:18;;;;;;;67.50;31.50;;;;;;;;;;4882429;29;20425;-76
2022/01/10 03:36:45;;;;;;;68.10;31.02;;;;;;;;;;4881316;29;20425;-76
2022/01/10 03:39:12;;;;;;;66.80;30.13;;;;;;;;;;4859180;29;20444;-76
2022/01/10 03:41:38;;;;;;;90.00;34.63;;;;;;;;;;4909834;29;20969;-76
2022/01/10 03:44:05;;;;;;;69.43;31.05;;;;;;;;;;4898533;29;20781;-76
2022/01/10 03:46:33;;;;;;;53.83;26.55;;;;;;;;;;4882242;29;20429;-76
2022/01/10 03:48:59;;;;;;;62.35;28.80;;;;;;;;;;4879620;29;20511;-76
2022/01/10 03:51:25;;;;;;;65.65;29.95;;;;;;;;;;4897347;29;20440;-76
2022/01/10 03:53:51;;;;;;;61.70;29.63;;;;;;;;;;4880225;29;20960;-76
2022/01/10 03:56:17;;;;;;;69.70;31.10;;;;;;;;;;4897232;29;20433;-76
2022/01/10 03:58:47;;;;;;;60.67;29.10;;;;;;;;;;4882629;29;20433;-77
2022/01/10 04:01:13;;;;;;;65.70;29.00;;;;;;;;;;4890863;29;20496;-77
2022/01/10 04:03:40;;;;;;;70.77;29.37;;;;;;;;;;4881920;29;20464;-77
2022/01/10 04:06:06;;;;;;;60.63;29.02;;;;;;;;;;4882221;29;20488;-78
2022/01/10 04:08:33;;;;;;;69.10;30.67;;;;;;;;;;4909256;29;20526;-78
2022/01/10 04:10:59;;;;;;;76.97;31.88;;;;;;;;;;4881959;29;20440;-78
2022/01/10 04:13:25;;;;;;;70.13;30.42;;;;;;;;;;4896358;29;20435;-77
2022/01/10 04:15:52;;;;;;;67.55;29.27;;;;;;;;;;4878909;29;20454;-77
2022/01/10 04:18:18;;;;;;;70.60;31.27;;;;;;;;;;4870450;29;20425;-76
2022/01/10 04:20:44;;;;;;;65.43;29.17;;;;;;;;;;4882590;29;20853;-80
2022/01/10 04:23:11;;;;;;;68.13;29.63;;;;;;;;;;4883436;29;20515;-81
2022/01/10 04:25:37;;;;;;;72.40;33.72;;;;;;;;;;4881516;29;20491;-82
2022/01/10 04:28:03;;;;;;;72.93;31.60;;;;;;;;;;4896466;29;20440;-81
2022/01/10 04:30:31;;;;;;;67.18;30.20;;;;;;;;;;4897043;29;21444;-80
2022/01/10 04:32:58;;;;;;;79.18;31.85;;;;;;;;;;4881680;29;20440;-77
2022/01/10 04:35:24;;;;;;;71.28;31.23;;;;;;;;;;4875025;29;20432;-77
2022/01/10 04:37:51;;;;;;;87.88;34.53;;;;;;;;;;4896529;29;20520;-77
2022/01/10 04:40:17;;;;;;;73.25;32.38;;;;;;;;;;4880953;29;20842;-78
2022/01/10 04:42:43;;;;;;;74.22;30.80;;;;;;;;;;4882099;29;20441;-77
2022/01/10 04:45:10;;;;;;;68.25;30.58;;;;;;;;;;4860992;29;20429;-77
2022/01/10 04:47:36;;;;;;;59.28;27.38;;;;;;;;;;4897483;29;20512;-80
2022/01/10 04:50:47;;;;;;;53.47;26.48;;;;;;;;;;4896348;29;20468;-80
2022/01/10 04:52:51;;;;;;;60.42;27.75;;;;;;;;;;4892650;29;20429;-77
2022/01/10 04:55:17;;;;;;;69.53;31.75;;;;;;;;;;4886084;29;20432;-77
2022/01/10 04:57:43;;;;;;;70.30;32.13;;;;;;;;;;4895286;29;20584;-77
2022/01/10 05:00:12;;;;;;;71.03;31.20;;;;;;;;;;4897081;29;20437;-77
2022/01/10 05:02:38;;;;;;;67.80;30.43;;;;;;;;;;4912533;29;20437;-77
2022/01/10 05:05:04;;;;;;;88.35;36.20;;;;;;;;;;4892394;29;20433;-77
2022/01/10 05:07:30;;;;;;;78.47;36.90;;;;;;;;;;4870890;29;20799;-77
2022/01/10 05:10:02;;;;;;;69.47;33.40;;;;;;;;;;4896913;29;20460;-78
2022/01/10 05:12:29;;;;;;;84.50;36.53;;;;;;;;;;4873515;29;20462;-78
2022/01/10 05:14:55;;;;;;;97.18;41.33;;;;;;;;;;4897128;29;20437;-79
2022/01/10 05:17:23;;;;;;;84.43;35.85;;;;;;;;;;4896489;29;20920;-78
2022/01/10 05:19:49;;;;;;;79.82;37.80;;;;;;;;;;4895803;29;20433;-77
2022/01/10 05:22:16;;;;;;;77.50;36.00;;;;;;;;;;4897117;29;20436;-77
2022/01/10 05:24:42;;;;;;;81.22;37.92;;;;;;;;;;4892196;29;20442;-77
2022/01/10 05:27:08;;;;;;;86.67;39.30;;;;;;;;;;4896590;29;20516;-77
2022/01/10 05:29:34;;;;;;;92.68;40.95;;;;;;;;;;4895080;29;20445;-77
2022/01/10 05:32:00;;;;;;;106.63;44.93;;;;;;;;;;4871034;29;20445;-77
2022/01/10 05:34:26;;;;;;;92.50;41.60;;;;;;;;;;4881390;29;20437;-77
2022/01/10 05:36:52;;;;;;;90.32;41.25;;;;;;;;;;4883473;29;20456;-77
2022/01/10 05:39:19;;;;;;;93.82;43.45;;;;;;;;;;4879884;29;20437;-81
2022/01/10 05:41:45;;;;;;;100.13;43.67;;;;;;;;;;4895770;29;20452;-81
2022/01/10 05:44:11;;;;;;;103.97;43.08;;;;;;;;;;4895694;29;20429;-82
2022/01/10 05:46:37;;;;;;;97.10;41.90;;;;;;;;;;4895670;29;20429;-82
2022/01/10 05:49:08;;;;;;;91.90;41.08;;;;;;;;;;4890153;29;20493;-80
2022/01/10 05:51:36;;;;;;;101.93;44.53;;;;;;;;;;4879964;29;20425;-82
2022/01/10 05:54:03;;;;;;;119.25;46.08;;;;;;;;;;4897249;29;20874;-82
2022/01/10 05:56:30;;;;;;;106.00;45.70;;;;;;;;;;4893504;29;20449;-82
2022/01/10 05:58:56;;;;;;;94.50;41.85;;;;;;;;;;4896916;29;20429;-77
2022/01/10 06:01:22;;;;;;;105.57;44.75;;;;;;;;;;4896698;29;20929;-77
2022/01/10 06:03:48;;;;;;;104.97;46.58;;;;;;;;;;4894628;29;20826;-78
2022/01/10 06:06:14;;;;;;;112.17;47.33;;;;;;;;;;4880899;29;20429;-78
2022/01/10 06:08:40;;;;;;;108.85;46.08;;;;;;;;;;4878977;29;20476;-77
2022/01/10 06:11:06;;;;;;;113.03;48.43;;;;;;;;;;4886883;29;20556;-77
2022/01/10 06:13:33;;;;;;;458.80;79.30;;;;;;;;;;4880134;29;20453;-77
2022/01/10 06:15:59;;;;;;;549.25;85.18;;;;;;;;;;4895441;29;20444;-78
2022/01/10 06:18:25;;;;;;;123.50;50.33;;;;;;;;;;4896397;29;20519;-77
2022/01/10 06:20:51;;;;;;;105.87;46.53;;;;;;;;;;4890469;29;20596;-77
2022/01/10 06:23:17;;;;;;;115.78;47.90;;;;;;;;;;4896189;29;20461;-78
2022/01/10 06:25:43;;;;;;;148.10;52.47;;;;;;;;;;4896001;29;20567;-77
2022/01/10 06:28:09;;;;;;;116.93;49.13;;;;;;;;;;4896626;29;20928;-77
2022/01/10 06:30:36;;;;;;;116.63;48.92;;;;;;;;;;4895432;29;20433;-78
2022/01/10 06:33:02;;;;;;;110.60;46.97;;;;;;;;;;4879236;29;21020;-77
2022/01/10 06:35:28;;;;;;;104.68;46.33;;;;;;;;;;4895421;29;20485;-77
2022/01/10 06:37:54;;;;;;;120.07;49.83;;;;;;;;;;4879126;29;20460;-77
2022/01/10 06:40:21;;;;;;;223.20;60.70;;;;;;;;;;4894885;29;20429;-77
2022/01/10 06:42:47;;;;;;;100.65;47.05;;;;;;;;;;4894967;29;20440;-76
2022/01/10 06:45:13;;;;;;;93.97;43.22;;;;;;;;;;4879404;29;21466;-77
2022/01/10 06:47:40;;;;;;;244.10;58.80;;;;;;;;;;4895529;29;20437;-77
2022/01/10 06:50:07;;;;;;;106.40;48.05;;;;;;;;;;4866235;29;20435;-77
2022/01/10 06:52:33;;;;;;;94.20;45.08;;;;;;;;;;4878385;29;20434;-77
2022/01/10 06:54:59;;;;;;;98.93;45.17;;;;;;;;;;4879369;29;20465;-77
2022/01/10 06:57:26;;;;;;;99.30;46.47;;;;;;;;;;4889245;29;20434;-77
2022/01/10 06:59:52;;;;;;;114.80;48.65;;;;;;;;;;4873305;29;20431;-77
2022/01/10 07:02:18;;;;;;;96.50;45.00;;;;;;;;;;4895868;29;20440;-76
2022/01/10 07:04:45;;;;;;;87.43;43.50;;;;;;;;;;4897878;29;20469;-77
2022/01/10 07:07:11;;;;;;;101.32;45.35;;;;;;;;;;4880451;29;20839;-76
2022/01/10 07:09:37;;;;;;;97.75;44.42;;;;;;;;;;4896142;29;20437;-77
2022/01/10 07:12:04;;;;;;;76.70;38.55;;;;;;;;;;4883680;29;20931;-78
2022/01/10 07:14:32;;;;;;;98.65;45.08;;;;;;;;;;4897077;29;20435;-77
2022/01/10 07:16:58;;;;;;;91.45;44.00;;;;;;;;;;4882219;29;20457;-80
2022/01/10 07:19:24;;;;;;;110.65;52.60;;;;;;;;;;4897754;29;20429;-81
2022/01/10 07:21:51;;;;;;;155.57;60.72;;;;;;;;;;4883722;29;20432;-81
2022/01/10 07:24:17;;;;;;;114.32;51.90;;;;;;;;;;4897389;29;20433;-80
2022/01/10 07:26:43;;;;;;;127.80;55.00;;;;;;;;;;4879660;29;20444;-80
2022/01/10 07:29:11;;;;;;;116.45;50.70;;;;;;;;;;4879908;29;20466;-80
2022/01/10 07:31:38;;;;;;;97.90;47.20;;;;;;;;;;4882961;29;20576;-80
2022/01/10 07:34:05;;;;;;;123.50;53.22;;;;;;;;;;4897223;29;20429;-81
2022/01/10 07:36:31;;;;;;;120.78;51.28;;;;;;;;;;4893596;29;20455;-80
2022/01/10 07:38:57;;;;;;;99.53;48.00;;;;;;;;;;4868370;29;20461;-81
2022/01/10 07:41:23;;;;;;;105.30;48.30;;;;;;;;;;4856508;29;20435;-78
2022/01/10 07:43:49;;;;;;;106.53;49.50;;;;;;;;;;4915577;29;20433;-78
2022/01/10 07:46:17;;;;;;;99.22;48.20;;;;;;;;;;4898702;29;20579;-78
2022/01/10 07:48:44;;;;;;;115.65;50.92;;;;;;;;;;4865015;29;20440;-78
2022/01/10 07:51:11;;;;;;;101.60;48.13;;;;;;;;;;4898951;29;20491;-80
2022/01/10 07:53:38;;;;;;;101.57;46.83;;;;;;;;;;4894115;29;20437;-80
2022/01/10 07:56:05;;;;;;;109.90;48.97;;;;;;;;;;4897902;29;20448;-80
2022/01/10 07:58:32;;;;;;;101.95;48.13;;;;;;;;;;4871014;29;20441;-80
2022/01/10 08:00:58;;;;;;;101.57;46.85;;;;;;;;;;4896299;23;20445;-79
2022/01/10 08:03:26;;;;;;;100.07;47.78;;;;;;;;;;4875699;29;20433;-78
2022/01/10 08:05:52;;;;;;;124.05;54.67;;;;;;;;;;4879246;29;20451;-78
2022/01/10 08:08:18;;;;;;;116.03;50.72;;;;;;;;;;4873722;29;20436;-79
2022/01/10 08:10:44;;;;;;;102.80;48.30;;;;;;;;;;4907224;29;20429;-79
2022/01/10 08:13:10;;;;;;;94.57;49.10;;;;;;;;;;4871297;29;20435;-80
2022/01/10 08:15:36;;;;;;;133.20;58.17;;;;;;;;;;4871271;29;20442;-80
2022/01/10 08:18:04;;;;;;;104.50;51.35;;;;;;;;;;4877740;29;20814;-80
2022/01/10 08:20:36;;;;;;;124.32;53.03;;;;;;;;;;4892099;29;20456;-81
2022/01/10 08:23:02;;;;;;;104.95;51.05;;;;;;;;;;4857807;29;20448;-81
2022/01/10 08:25:28;;;;;;;161.65;56.30;;;;;;;;;;4878519;29;20439;-81
2022/01/10 08:27:54;;;;;;;101.30;49.70;;;;;;;;;;4873324;29;20433;-77
2022/01/10 08:30:20;;;;;;;113.68;52.70;;;;;;;;;;4867711;29;20444;-80
2022/01/10 08:32:50;;;;;;;94.95;47.90;;;;;;;;;;4874047;29;20431;-80
2022/01/10 08:35:16;;;;;;;118.78;54.90;;;;;;;;;;4890233;29;20433;-80
2022/01/10 08:37:42;;;;;;;112.22;52.55;;;;;;;;;;4890165;29;20792;-80
2022/01/10 08:40:08;;;;;;;108.63;53.10;;;;;;;;;;4875726;29;20429;-80
2022/01/10 08:42:35;;;;;;;118.70;55.63;;;;;;;;;;4882260;29;20485;-77
2022/01/10 08:45:01;;;;;;;174.15;81.38;;;;;;;;;;4888351;29;20488;-77
2022/01/10 08:47:27;;;;;;;378.27;108.78;;;;;;;;;;4859118;29;20441;-77
2022/01/10 08:49:53;;;;;;;137.10;70.28;;;;;;;;;;4881614;29;20437;-77
2022/01/10 08:52:20;;;;;;;129.10;63.57;;;;;;;;;;4891060;29;20464;-80
2022/01/10 08:54:48;;;;;;;129.35;62.25;;;;;;;;;;4888130;29;20428;-80
2022/01/10 08:57:14;;;;;;;131.30;63.60;;;;;;;;;;4853694;29;20441;-79
2022/01/10 08:59:40;;;;;;;119.43;56.83;;;;;;;;;;4845100;29;20976;-80
2022/01/10 09:02:08;;;;;;;107.15;54.53;;;;;;;;;;4858794;29;20445;-80
2022/01/10 09:04:34;;;;;;;102.30;52.40;;;;;;;;;;4868949;29;20437;-81
2022/01/10 09:07:02;;;;;;;109.22;52.92;;;;;;;;;;4875545;29;20427;-79
2022/01/10 09:09:28;;;;;;;356.33;74.95;;;;;;;;;;4856157;29;20438;-79
2022/01/10 09:11:54;;;;;;;122.53;54.85;;;;;;;;;;4874477;29;20904;-79
2022/01/10 09:14:21;;;;;;;103.60;53.20;;;;;;;;;;4869623;29;20521;-79
2022/01/10 09:16:47;;;;;;;107.72;52.80;;;;;;;;;;4871329;29;20440;-79
2022/01/10 09:19:13;;;;;;;109.03;55.85;;;;;;;;;;4852023;29;20443;-79
2022/01/10 09:21:39;;;;;;;108.30;54.80;;;;;;;;;;4872602;29;20434;-78
2022/01/10 09:24:06;;;;;;;97.97;53.40;;;;;;;;;;4868682;29;20494;-79
2022/01/10 09:26:32;;;;;;;103.57;54.37;;;;;;;;;;4863858;29;20897;-81
2022/01/10 09:28:59;;;;;;;100.85;52.83;;;;;;;;;;4867206;29;20533;-78
2022/01/10 09:31:25;;;;;;;94.77;52.10;;;;;;;;;;4883166;29;20443;-76
2022/01/10 09:33:54;;;;;;;98.10;51.85;;;;;;;;;;4850149;29;20879;-76
2022/01/10 09:36:21;;;;;;;98.00;51.45;;;;;;;;;;4869173;29;20431;-75
2022/01/10 09:38:48;;;;;;;92.53;50.58;;;;;;;;;;4864994;29;20435;-76
2022/01/10 09:41:14;;;;;;;98.45;52.22;;;;;;;;;;4850775;29;20432;-75
2022/01/10 09:43:42;;;;;;;91.72;50.05;;;;;;;;;;4864101;29;20443;-75
2022/01/10 09:46:08;;;;;;;88.00;49.95;;;;;;;;;;4875258;29;20434;-75
2022/01/10 09:48:35;;;;;;;90.10;48.35;;;;;;;;;;4863657;29;20976;-75
2022/01/10 09:51:01;;;;;;;94.38;53.75;;;;;;;;;;4869666;29;20434;-75
2022/01/10 09:53:27;;;;;;;89.70;52.28;;;;;;;;;;4839682;29;20466;-75
2022/01/10 09:55:53;;;;;;;97.32;49.67;;;;;;;;;;4859680;29;20463;-75
2022/01/10 09:58:19;;;;;;;79.80;44.55;;;;;;;;;;4863362;29;20591;-75
2022/01/10 10:00:46;;;;;;;64.35;40.55;;;;;;;;;;4857519;29;20485;-75
2022/01/10 10:03:12;;;;;;;100.10;40.13;;;;;;;;;;4852878;29;20725;-75
2022/01/10 10:05:38;;;;;;;62.70;38.58;;;;;;;;;;4866906;29;20517;-76
2022/01/10 10:08:04;;;;;;;63.17;36.60;;;;;;;;;;4858193;29;20440;-75
2022/01/10 10:10:30;;;;;;;57.65;35.90;;;;;;;;;;4855319;29;20431;-80
2022/01/10 10:12:56;;;;;;;61.67;35.63;;;;;;;;;;4860106;29;20465;-79
2022/01/10 10:15:28;;;;;;;62.88;36.80;;;;;;;;;;4873355;29;20486;-79
2022/01/10 10:17:54;;;;;;;76.35;37.40;;;;;;;;;;4864413;29;20439;-79
2022/01/10 10:20:21;;;;;;;103.82;38.80;;;;;;;;;;4862232;29;20517;-75
2022/01/10 10:22:49;;;;;;;78.10;36.97;;;;;;;;;;4870511;29;20449;-75
2022/01/10 10:25:15;;;;;;;55.83;34.72;;;;;;;;;;4871326;29;20438;-76
2022/01/10 10:27:43;;;;;;;68.20;37.10;;;;;;;;;;4845877;29;20527;-76
2022/01/10 10:30:12;;;;;;;64.32;36.70;;;;;;;;;;4856195;29;20769;-79
2022/01/10 10:32:38;;;;;;;57.42;36.40;;;;;;;;;;4873467;29;21002;-79
2022/01/10 10:35:05;;;;;;;78.05;38.05;;;;;;;;;;4867451;29;20427;-79
2022/01/10 10:37:35;;;;;;;105.65;39.90;;;;;;;;;;4869736;29;20458;-76
2022/01/10 10:40:03;;;;;;;114.80;37.53;;;;;;;;;;4875628;29;20431;-76
2022/01/10 10:42:29;;;;;;;94.68;37.28;;;;;;;;;;4877123;29;20436;-76
2022/01/10 10:44:56;;;;;;;57.20;37.83;;;;;;;;;;4873995;29;20435;-76
2022/01/10 10:47:26;;;;;;;54.40;33.50;;;;;;;;;;4848740;29;20970;-76
2022/01/10 10:49:57;;;;;;;58.60;34.92;;;;;;;;;;4870034;29;20443;-76
2022/01/10 10:52:23;;;;;;;56.00;33.25;;;;;;;;;;4856997;29;20442;-76
2022/01/10 10:54:49;;;;;;;58.63;37.47;;;;;;;;;;4873942;29;20843;-76
2022/01/10 10:57:17;;;;;;;49.90;33.38;;;;;;;;;;4868896;29;20498;-77
2022/01/10 10:59:44;;;;;;;50.03;32.03;;;;;;;;;;4855329;29;20448;-77
2022/01/10 11:02:11;;;;;;;48.53;32.65;;;;;;;;;;4891586;29;20845;-78
2022/01/10 11:04:37;;;;;;;51.35;33.88;;;;;;;;;;4871636;29;20784;-78
2022/01/10 11:07:04;;;;;;;46.83;31.63;;;;;;;;;;4890048;29;20617;-76
2022/01/10 11:09:30;;;;;;;47.42;31.52;;;;;;;;;;4892012;29;20797;-76
2022/01/10 11:11:56;;;;;;;53.60;32.28;;;;;;;;;;4884822;29;20474;-76
2022/01/10 11:14:24;;;;;;;46.35;30.40;;;;;;;;;;4873069;29;20787;-76
2022/01/10 11:16:52;;;;;;;90.43;34.35;;;;;;;;;;4881126;29;20483;-76
2022/01/10 11:19:23;;;;;;;45.72;29.27;;;;;;;;;;4879829;29;20431;-77
2022/01/10 11:21:53;;;;;;;51.83;31.80;;;;;;;;;;4875726;29;20443;-76
2022/01/10 11:24:38;;;;;;;51.67;34.10;;;;;;;;;;4867802;29;20440;-76
2022/01/10 11:27:08;;;;;;;45.75;31.42;;;;;;;;;;4878109;29;20425;-76
2022/01/10 11:29:41;;;;;;;46.33;34.00;;;;;;;;;;4875970;29;20999;-76
2022/01/10 11:32:07;;;;;;;49.80;32.15;;;;;;;;;;4877247;29;20502;-76
2022/01/10 11:34:33;;;;;;;42.75;29.08;;;;;;;;;;4882655;29;20427;-77
2022/01/10 11:37:01;;;;;;;53.97;35.83;;;;;;;;;;4873315;29;20829;-76
2022/01/10 11:39:36;;;;;;;49.20;30.52;;;;;;;;;;4869150;29;20853;-76
2022/01/10 11:42:02;;;;;;;41.15;28.90;;;;;;;;;;4867447;29;20436;-76
2022/01/10 11:44:30;;;;;;;43.08;28.80;;;;;;;;;;4889263;29;20523;-76
2022/01/10 11:46:59;;;;;;;41.97;27.38;;;;;;;;;;4857891;29;20437;-76
2022/01/10 11:49:25;;;;;;;42.22;27.60;;;;;;;;;;4865018;29;20491;-76
2022/01/10 11:51:51;;;;;;;47.10;29.73;;;;;;;;;;4881331;29;20533;-76
2022/01/10 11:54:27;;;;;;;47.75;28.50;;;;;;;;;;4879051;29;20474;-76
2022/01/10 11:57:00;;;;;;;41.17;28.27;;;;;;;;;;4872392;29;20440;-75
2022/01/10 11:59:33;;;;;;;38.42;25.13;;;;;;;;;;4876105;29;20441;-76
2022/01/10 12:02:03;;;;;;;37.80;25.95;;;;;;;;;;4883578;29;20437;-76
2022/01/10 12:04:31;;;;;;;38.35;26.65;;;;;;;;;;4896674;29;20425;-76
2022/01/10 12:06:57;;;;;;;37.85;25.20;;;;;;;;;;4896155;29;20472;-76
2022/01/10 12:09:24;;;;;;;34.47;24.42;;;;;;;;;;4874809;29;20868;-77
2022/01/10 12:11:51;;;;;;;32.03;23.98;;;;;;;;;;4876642;29;20460;-76
2022/01/10 12:14:17;;;;;;;34.38;23.77;;;;;;;;;;4888790;29;20436;-76
2022/01/10 12:16:44;;;;;;;39.10;24.35;;;;;;;;;;4873900;29;20943;-76
2022/01/10 12:19:10;;;;;;;32.88;23.80;;;;;;;;;;4875749;29;20524;-76
2022/01/10 12:21:37;;;;;;;32.42;22.75;;;;;;;;;;4887139;29;20869;-76
2022/01/10 12:24:04;;;;;;;35.17;23.85;;;;;;;;;;4873971;29;20427;-75
2022/01/10 12:26:30;;;;;;;36.15;24.08;;;;;;;;;;4861616;29;20434;-76
2022/01/10 12:28:59;;;;;;;34.38;24.83;;;;;;;;;;4865485;29;20437;-75
2022/01/10 12:31:27;;;;;;;36.13;25.45;;;;;;;;;;4863368;29;20791;-76
2022/01/10 12:33:54;;;;;;;37.58;25.95;;;;;;;;;;4858137;29;20431;-76
2022/01/10 12:36:21;;;;;;;35.03;25.77;;;;;;;;;;4873227;29;20433;-76
2022/01/10 12:38:51;;;;;;;39.13;24.63;;;;;;;;;;4855860;29;20438;-76
2022/01/10 12:41:20;;;;;;;33.20;23.05;;;;;;;;;;4870843;29;20554;-76
2022/01/10 12:43:47;;;;;;;32.78;23.35;;;;;;;;;;4872485;29;20427;-76
2022/01/10 12:46:13;;;;;;;32.13;23.03;;;6.70;99.90;;;;;;4875436;29;20449;-76
2022/01/10 12:48:41;;;;;;;33.10;22.90;;;;;;;;;;4870333;29;20440;-75
2022/01/10 12:51:07;;;;;;;37.28;27.00;;;;;;;;;;4886903;29;20433;-76
2022/01/10 12:53:33;;;;;;;35.80;25.05;;;;;;;;;;4853007;29;20470;-76
2022/01/10 12:56:00;;;;;;;39.15;25.23;;;;;;;;;;4872762;29;20445;-76
2022/01/10 12:58:26;;;;;;;34.78;23.77;;;;;;;;;;4873925;29;20430;-76
2022/01/10 13:00:52;;;;;;;35.33;25.57;;;;;;;;;;4855460;29;20497;-76
2022/01/10 13:03:18;;;;;;;37.72;25.23;;;;;;;;;;4863532;29;20516;-76
2022/01/10 13:05:45;;;;;;;40.38;25.65;;;;;;;;;;4872970;29;20457;-76
2022/01/10 13:08:11;;;;;;;34.05;24.02;;;;;;;;;;4872457;29;20928;-75
2022/01/10 13:10:39;;;;;;;35.47;24.53;;;;;;;;;;4861241;29;20877;-76
2022/01/10 13:13:05;;;;;;;36.97;24.13;;;;;;;;;;4877522;29;20445;-76
2022/01/10 13:15:33;;;;;;;33.22;21.67;;;;;;;;;;4866708;29;20429;-76
2022/01/10 13:18:00;;;;;;;37.35;23.08;;;;;;;;;;4873155;29;20537;-76
2022/01/10 13:20:28;;;;;;;36.20;23.57;;;;;;;;;;4893151;29;20433;-76
2022/01/10 13:23:05;;;;;;;36.28;25.00;;;;;;;;;;4870464;29;20439;-76
2022/01/10 13:25:32;;;;;;;35.27;23.37;;;;;;;;;;4880055;29;20818;-76
2022/01/10 13:28:03;;;;;;;39.15;24.30;;;;;;;;;;4884621;29;20431;-76
2022/01/10 13:30:30;;;;;;;39.85;23.75;;;;;;;;;;4870300;29;20538;-75
2022/01/10 13:32:57;;;;;;;37.80;23.70;;;;;;;;;;4887167;29;20488;-76
2022/01/10 13:35:24;;;;;;;38.33;23.40;;;;;;;;;;4867957;29;20424;-76
2022/01/10 13:37:59;;;;;;;34.77;22.40;;;;;;;;;;4893179;29;20431;-76
2022/01/10 13:40:25;;;;;;;34.95;22.83;;;;;;;;;;4893406;29;20515;-77
2022/01/10 13:42:59;;;;;;;36.42;24.02;;;;;;;;;;4883225;29;20462;-76
2022/01/10 13:45:40;;;;;;;36.77;26.93;;;;;;;;;;4869219;29;20830;-76
2022/01/10 13:48:06;;;;;;;35.55;24.33;;;;;;;;;;4882823;29;20675;-76
2022/01/10 13:50:33;;;;;;;38.42;24.85;;;;;;;;;;4888875;29;20440;-76
2022/01/10 13:53:04;;;;;;;37.97;26.05;;;;;;;;;;4876047;29;20454;-76
2022/01/10 13:55:31;;;;;;;38.08;25.98;;;;;;;;;;4883746;29;20439;-75
2022/01/10 13:57:57;;;;;;;44.00;27.95;;;;;;;;;;4883847;29;20462;-76
2022/01/10 14:00:23;;;;;;;43.00;27.15;;;;;;;;;;4863888;29;20477;-76
2022/01/10 14:02:51;;;;;;;42.90;27.98;;;;;;;;;;4878597;29;20437;-77
2022/01/10 14:05:27;;;;;;;38.75;26.65;;;;;;;;;;4888805;29;20440;-76
2022/01/10 14:07:57;;;;;;;43.10;27.17;;;;;;;;;;4876595;29;20511;-76
2022/01/10 14:10:24;;;;;;;42.67;27.75;;;;;;;;;;4890768;29;20469;-76
2022/01/10 14:12:51;;;;;;;45.00;26.95;;;;;;;;;;4887947;29;21005;-76
2022/01/10 14:15:23;;;;;;;42.20;27.60;;;;;;;;;;4892242;29;20492;-76
2022/01/10 14:17:49;;;;;;;38.67;26.63;;;;;;;;;;4873119;29;21000;-76
2022/01/10 14:20:15;;;;;;;37.92;27.10;;;;;;;;;;4892577;29;20437;-80
2022/01/10 14:22:41;;;;;;;45.13;29.80;;;;;;;;;;4878485;29;20434;-80
2022/01/10 14:25:08;;;;;;;46.53;29.10;;;;;;;;;;4875910;29;20781;-80
2022/01/10 14:27:34;;;;;;;42.90;29.30;;;;;;;;;;4893197;29;20434;-80
2022/01/10 14:30:00;;;;;;;41.67;29.37;;;;;;;;;;4886558;29;20964;-80
2022/01/10 14:32:27;;;;;;;44.85;29.75;;;;;;;;;;4895405;29;20861;-81
2022/01/10 14:34:53;;;;;;;41.88;27.70;;;;;;;;;;4877005;29;20428;-80
2022/01/10 14:37:19;;;;;;;42.13;27.67;;;;;;;;;;4879051;29;20465;-82
2022/01/10 14:39:45;;;;;;;42.42;27.02;;;;;;;;;;4872903;29;20497;-82